Time;durP1;ratioP1;P1;durP2;ratioP2;P2;SDS_P1;SDS_P2;PMS_P1;PMS_P2;Temp;Humidity;BMP_temperature;BMP_pressure;BME280_temperature;BME280_humidity;BME280_pressure;Samples;Min_cycle;Max_cycle;Signal;HPM_P1;HPM_P2
2023/06/14 00:00:11;;;;;;;2.80;1.52;;;;;;;15.31;72.59;101743.03;6148712;23;20020;-73
2023/06/14 00:02:56;;;;;;;6.93;1.80;;;;;;;15.29;72.67;101742.22;6150957;23;20032;-72
2023/06/14 00:05:42;;;;;;;2.95;1.60;;;;;;;15.28;72.72;101744.06;6151048;23;20024;-73
2023/06/14 00:08:26;;;;;;;2.00;1.35;;;;;;;15.26;72.93;101740.56;6118199;23;20091;-73
2023/06/14 00:11:10;;;;;;;2.08;1.40;;;;;;;15.25;72.72;101744.19;6107838;23;20105;-73
2023/06/14 00:13:54;;;;;;;3.58;1.60;;;;;;;15.24;73.35;101747.81;6150389;23;20473;-73
2023/06/14 00:16:42;;;;;;;2.38;1.40;;;;;;;15.21;73.25;101753.31;6149269;23;20067;-72
2023/06/14 00:19:26;;;;;;;1.60;1.40;;;;;;;15.18;73.45;101748.09;6128866;23;20032;-73
2023/06/14 00:22:10;;;;;;;2.67;1.65;;;;;;;15.16;73.37;101750.00;6150996;23;20021;-72
2023/06/14 00:24:54;;;;;;;3.08;1.60;;;;;;;15.13;74.25;101750.13;6140651;23;20090;-73
2023/06/14 00:27:38;;;;;;;2.47;1.45;;;;;;;15.10;74.15;101750.31;6150752;23;20076;-73
2023/06/14 00:30:23;;;;;;;2.33;1.60;;;;;;;15.07;74.88;101749.53;6097295;23;20074;-73
2023/06/14 00:33:07;;;;;;;2.75;1.48;;;;;;;15.05;74.89;101753.22;6138201;23;20040;-72
2023/06/14 00:35:53;;;;;;;2.50;1.40;;;;;;;15.04;75.56;101752.34;6125269;23;20036;-73
2023/06/14 00:38:40;;;;;;;2.60;1.50;;;;;;;14.99;76.38;101751.69;6141080;23;20049;-73
2023/06/14 00:41:24;;;;;;;1.65;1.40;;;;;;;14.96;75.82;101750.97;6151166;23;20033;-73
2023/06/14 00:44:08;;;;;;;3.92;1.63;;;;;;;14.93;76.66;101754.69;6108089;23;20028;-73
2023/06/14 00:46:52;;;;;;;2.75;1.80;;;;;;;14.91;76.26;101753.88;6122053;23;20105;-73
2023/06/14 00:49:36;;;;;;;3.35;1.73;;;;;;;14.89;76.91;101753.09;6119898;23;20092;-74
2023/06/14 00:52:20;;;;;;;2.67;1.55;;;;;;;14.88;76.71;101746.06;6116869;23;20088;-72
2023/06/14 00:55:05;;;;;;;4.28;1.45;;;;;;;14.86;77.91;101754.13;6120397;23;20013;-74
2023/06/14 00:57:51;;;;;;;4.32;1.83;;;;;;;14.83;78.00;101753.41;6121658;23;20187;-73
2023/06/14 01:00:34;;;;;;;1.60;1.45;;;;;;;14.79;78.21;101748.25;6107717;23;20073;-73
2023/06/14 01:03:21;;;;;;;3.35;1.75;;;;;;;14.78;79.09;101750.97;6119407;23;20080;-72
2023/06/14 01:06:15;;;;;;;3.05;1.42;;;;;;;14.73;79.62;101739.63;6119645;23;20104;-72
2023/06/14 01:09:24;;;;;;;2.00;1.58;;;;;;;14.72;81.82;101745.91;6116284;23;20488;-72
2023/06/14 01:12:15;;;;;;;2.25;1.30;;;;;;;14.69;80.49;101749.56;6110247;23;20016;-73
2023/06/14 01:15:00;;;;;;;2.72;1.42;;;;;;;14.66;79.77;101752.41;6120103;23;20071;-73
2023/06/14 01:17:51;;;;;;;2.42;1.63;;;;;;;14.64;80.74;101743.59;6084692;23;20525;-72
2023/06/14 01:20:37;;;;;;;5.70;1.50;;;;;;;14.60;80.59;101752.69;6120247;23;20032;-73
2023/06/14 01:23:22;;;;;;;2.58;1.40;;;;;;;14.55;81.20;101744.94;6110403;23;20399;-74
2023/06/14 01:26:09;;;;;;;2.72;1.60;;;;;;;14.52;81.46;101745.94;6119124;23;20085;-73
2023/06/14 01:28:58;;;;;;;8.45;1.92;;;;;;;14.47;81.49;101741.75;6108878;23;20068;-72
2023/06/14 01:31:42;;;;;;;1.73;1.35;;;;;;;14.44;81.32;101756.06;6119280;23;20025;-73
2023/06/14 01:34:26;;;;;;;2.97;1.50;;;;;;;14.40;82.14;101757.16;6110134;23;20081;-73
2023/06/14 01:37:11;;;;;;;2.90;1.50;;;;;;;14.35;82.50;101754.72;6137828;23;20031;-73
2023/06/14 01:39:55;;;;;;;1.50;1.25;;;;;;;14.33;83.03;101753.91;6116152;23;20066;-73
2023/06/14 01:42:39;;;;;;;3.35;1.63;;;;;;;14.31;84.11;101753.13;6106106;23;20120;-72
2023/06/14 01:45:24;;;;;;;2.10;1.40;;;;;;;14.28;84.11;101763.94;6126270;23;20338;-73
2023/06/14 01:48:09;;;;;;;3.17;1.38;;;;;;;14.23;84.43;101755.28;6125587;23;20033;-73
2023/06/14 01:50:53;;;;;;;2.70;1.58;;;;;;;14.22;85.21;101761.56;6142325;23;20129;-72
2023/06/14 01:53:37;;;;;;;1.75;1.40;;;;;;;14.17;85.34;101759.09;6144900;23;20032;-72
2023/06/14 01:56:21;;;;;;;2.28;1.40;;;;;;;14.15;85.88;101760.97;6146365;23;20696;-72
2023/06/14 01:59:05;;;;;;;1.52;1.25;;;;;;;14.10;86.29;101758.53;6146822;23;20032;-72
2023/06/14 02:01:49;;;;;;;4.43;1.60;;;;;;;14.07;86.55;101752.47;6123898;23;20012;-72
2023/06/14 02:04:33;;;;;;;1.92;1.40;;;;;;;14.05;86.62;101757.00;6136546;23;20128;-73
2023/06/14 02:07:17;;;;;;;1.98;1.50;;;;;;;14.00;87.65;101762.53;6146539;23;20016;-73
2023/06/14 02:10:05;;;;;;;2.83;1.52;;;;;;;13.97;88.26;101755.56;6120652;23;20160;-76
2023/06/14 02:12:49;;;;;;;1.90;1.20;;;;;;;13.93;88.22;101756.63;6131830;23;20120;-73
2023/06/14 02:15:33;;;;;;;2.25;1.58;;;;;;;13.88;88.49;101750.63;6122978;23;20028;-72
2023/06/14 02:18:18;;;;;;;3.80;1.50;;;;;;;13.85;88.76;101761.44;6113075;23;20064;-71
2023/06/14 02:21:02;;;;;;;2.55;1.60;;;;;;;13.81;89.15;101751.84;6146470;23;20545;-72
2023/06/14 02:23:46;;;;;;;3.10;1.50;;;;;;;13.79;89.76;101751.06;6097407;23;20012;-72
2023/06/14 02:26:30;;;;;;;1.55;1.40;;;;;;;13.74;90.55;101753.06;6118857;23;20125;-72
2023/06/14 02:29:14;;;;;;;2.17;1.40;;;;;;;13.74;91.27;101758.38;6125718;23;20077;-72
2023/06/14 02:31:59;;;;;;;2.67;1.30;;;;;;;13.71;90.93;101765.56;6143699;23;20052;-72
2023/06/14 02:34:43;;;;;;;3.90;1.70;;;;;;;13.69;91.83;101758.59;6139427;23;20020;-72
2023/06/14 02:37:27;;;;;;;2.90;1.30;;;;;;;13.67;91.61;101766.63;6114344;23;20032;-72
2023/06/14 02:40:11;;;;;;;2.72;1.60;;;;;;;13.65;92.73;101749.88;6148866;23;20017;-73
2023/06/14 02:42:55;;;;;;;2.03;1.40;;;;;;;13.60;92.36;101759.84;6146976;23;20066;-72
2023/06/14 02:45:40;;;;;;;2.75;1.40;;;;;;;13.55;92.89;101761.84;6126629;23;20052;-72
2023/06/14 02:48:24;;;;;;;4.50;1.67;;;;;;;13.54;94.65;101762.78;6144961;23;20036;-73
2023/06/14 02:51:09;;;;;;;3.03;1.90;;;;;;;13.51;94.38;101760.25;6142425;23;20048;-72
2023/06/14 02:53:53;;;;;;;2.05;1.70;;;;;;;13.48;95.21;101763.03;6148232;23;20649;-72
2023/06/14 02:56:37;;;;;;;1.60;1.50;;;;;;;13.47;94.83;101766.63;6148044;23;20016;-72
2023/06/14 02:59:21;;;;;;;1.50;1.40;;;;;;;13.45;95.26;101766.66;6114912;23;20036;-72
2023/06/14 03:02:06;;;;;;;1.98;1.42;;;;;;;13.42;94.91;101772.97;6137910;23;20346;-72
2023/06/14 03:04:50;;;;;;;1.67;1.30;;;;;;;13.39;96.01;101770.47;6139460;23;20313;-73
2023/06/14 03:07:35;;;;;;;1.73;1.30;;;;;;;13.38;97.10;101779.38;6147303;23;20107;-72
2023/06/14 03:10:18;;;;;;;2.83;1.60;;;;;;;13.34;97.11;101767.13;6148475;23;20032;-71
2023/06/14 03:13:03;;;;;;;3.10;1.60;;;;;;;13.30;97.26;101773.53;6125154;23;20089;-72
2023/06/14 03:15:49;;;;;;;3.22;1.83;;;;;;;13.30;98.01;101782.34;6146977;23;20362;-74
2023/06/14 03:18:35;;;;;;;2.28;1.73;;;;;;;13.29;98.07;101782.44;6138615;23;20080;-71
2023/06/14 03:21:20;;;;;;;2.72;1.70;;;;;;;13.28;98.16;101780.69;6145552;23;20552;-72
2023/06/14 03:24:04;;;;;;;5.00;1.77;;;;;;;13.27;98.27;101778.94;6149610;23;20028;-72
2023/06/14 03:26:48;;;;;;;3.05;1.60;;;;;;;13.27;99.37;101785.16;6140299;23;20868;-73
2023/06/14 03:29:32;;;;;;;2.45;1.80;;;;;;;13.25;99.03;101786.13;6126098;23;20060;-73
2023/06/14 03:32:17;;;;;;;2.75;1.45;;;;;;;13.23;99.51;101782.69;6125204;23;20031;-73
2023/06/14 03:35:00;;;;;;;3.40;1.92;;;;;;;13.22;99.04;101792.44;6138193;23;20087;-72
2023/06/14 03:37:45;;;;;;;4.03;2.03;;;;;;;13.21;100.00;101792.50;6114899;23;20474;-72
2023/06/14 03:40:29;;;;;;;2.10;1.80;;;;;;;13.20;99.79;101790.78;6124265;23;20335;-72
2023/06/14 03:43:14;;;;;;;3.03;1.65;;;;;;;13.18;99.67;101794.38;6126187;23;20044;-73
2023/06/14 03:45:57;;;;;;;2.50;1.73;;;;;;;13.18;99.47;101799.69;6133760;23;20027;-73
2023/06/14 03:48:41;;;;;;;3.33;1.80;;;;;;;13.15;100.00;101797.16;6147669;23;20595;-72
2023/06/14 03:51:26;;;;;;;2.50;1.83;;;;;;;13.17;100.00;101789.09;6125191;23;20084;-73
2023/06/14 03:54:10;;;;;;;2.72;1.85;;;;;;;13.17;100.00;101794.41;6145882;23;20418;-74
2023/06/14 03:56:54;;;;;;;3.58;1.60;;;;;;;13.16;100.00;101801.56;6146854;23;20415;-72
2023/06/14 03:59:38;;;;;;;2.90;1.90;;;;;;;13.17;100.00;101807.72;6114580;23;20064;-73
2023/06/14 04:02:23;;;;;;;3.47;1.60;;;;;;;13.18;100.00;101810.31;6115510;23;20462;-72
2023/06/14 04:05:08;;;;;;;1.75;1.58;;;;;;;13.20;100.00;101809.38;6138459;23;20155;-72
2023/06/14 04:07:55;;;;;;;3.10;2.10;;;;;;;13.22;100.00;101812.84;6125085;23;20111;-72
2023/06/14 04:10:50;;;;;;;4.47;1.80;;;;;;;13.26;100.00;101817.13;6115674;23;20890;-72
2023/06/14 04:13:35;;;;;;;2.90;1.98;;;;;;;13.27;100.00;101825.03;6114333;23;20262;-73
2023/06/14 04:16:19;;;;;;;2.63;2.15;;;;;;;13.28;100.00;101826.75;6147251;23;20033;-72
2023/06/14 04:19:10;;;;;;;3.15;1.85;;;;;;;13.32;100.00;101822.19;6124696;23;20118;-73
2023/06/14 04:21:54;;;;;;;2.65;1.80;;;;;;;13.36;100.00;101831.78;6136487;23;20024;-73
2023/06/14 04:24:39;;;;;;;3.83;1.90;;;;;;;13.37;100.00;101828.19;6096651;23;20724;-73
2023/06/14 04:27:26;;;;;;;2.63;1.73;;;;;;;13.40;100.00;101832.50;6149511;23;20028;-72
2023/06/14 04:30:10;;;;;;;2.10;1.60;;;;;;;13.43;100.00;101835.91;6127762;23;20390;-73
2023/06/14 04:32:55;;;;;;;5.20;2.05;;;;;;;13.49;100.00;101839.25;6145890;23;20112;-72
2023/06/14 04:35:40;;;;;;;4.13;2.40;;;;;;;13.54;100.00;101834.59;6091924;23;20438;-73
2023/06/14 04:38:25;;;;;;;2.47;1.98;;;;;;;13.57;100.00;101838.00;6125806;23;20152;-73
2023/06/14 04:41:11;;;;;;;2.35;1.98;;;;;;;13.64;100.00;101849.25;6146394;23;20019;-73
2023/06/14 04:43:57;;;;;;;2.90;2.00;;;;;;;13.69;100.00;101847.25;6114240;23;20122;-74
2023/06/14 04:46:47;;;;;;;4.50;1.80;;;;;;;13.76;100.00;101849.66;6106924;23;20029;-74
2023/06/14 04:49:32;;;;;;;2.30;1.85;;;;;;;13.78;100.00;101855.78;6106417;23;20025;-75
2023/06/14 04:52:17;;;;;;;3.22;2.03;;;;;;;13.81;100.00;101858.31;6104476;23;20076;-73
2023/06/14 04:55:01;;;;;;;2.90;1.90;;;;;;;13.85;100.00;101851.94;6128039;23;20106;-74
2023/06/14 04:57:45;;;;;;;3.60;2.28;;;;;;;13.88;100.00;101853.59;6117365;23;20016;-72
2023/06/14 05:00:30;;;;;;;3.70;2.03;;;;;;;13.94;100.00;101848.00;6113007;23;20040;-73
2023/06/14 05:03:14;;;;;;;2.92;2.20;;;;;;;13.97;100.00;101846.09;6107720;23;20105;-73
2023/06/14 05:06:00;;;;;;;2.40;1.70;;;;;;;14.09;100.00;101859.75;6117319;23;20032;-73
2023/06/14 05:08:44;;;;;;;2.90;2.20;;;;;;;14.13;100.00;101850.72;6117539;23;20064;-73
2023/06/14 05:11:28;;;;;;;5.78;2.50;;;;;;;14.21;100.00;101853.00;6117910;23;20052;-73
2023/06/14 05:14:12;;;;;;;2.78;2.20;;;;;;;14.30;100.00;101854.41;6117460;23;20457;-73
2023/06/14 05:16:57;;;;;;;2.65;2.10;;;;;;;14.43;100.00;101855.59;6118035;23;20188;-73
2023/06/14 05:19:41;;;;;;;3.58;2.03;;;;;;;14.58;100.00;101850.47;6127045;23;20052;-73
2023/06/14 05:22:25;;;;;;;3.78;2.28;;;;;;;14.71;100.00;101861.44;6118242;23;20033;-74
2023/06/14 05:25:11;;;;;;;5.22;2.60;;;;;;;14.88;100.00;101863.34;6119193;23;20024;-74
2023/06/14 05:27:58;;;;;;;5.20;2.40;;;;;;;15.07;100.00;101856.19;6119628;23;20101;-74
2023/06/14 05:30:42;;;;;;;2.78;2.10;;;;;;;15.29;100.00;101857.81;6085673;23;20068;-73
2023/06/14 05:33:26;;;;;;;3.20;2.30;;;;;;;15.57;100.00;101859.09;6107554;23;20099;-74
2023/06/14 05:36:10;;;;;;;2.67;2.10;;;;;;;15.82;100.00;101864.97;6115922;23;20355;-73
2023/06/14 05:38:59;;;;;;;4.03;2.22;;;;;;;16.06;98.75;101868.22;6117898;23;20403;-73
2023/06/14 05:41:43;;;;;;;3.53;2.30;;;;;;;16.28;96.83;101864.41;6086688;23;20017;-73
2023/06/14 05:44:28;;;;;;;5.07;2.15;;;;;;;16.55;96.30;101874.53;6118556;23;20060;-74
2023/06/14 05:47:12;;;;;;;4.28;2.22;;;;;;;16.75;95.07;101872.59;6145820;23;20633;-74
2023/06/14 05:49:56;;;;;;;3.90;2.22;;;;;;;16.92;94.17;101871.63;6146658;23;20408;-73
2023/06/14 05:52:42;;;;;;;4.95;2.40;;;;;;;17.14;92.67;101867.78;6146800;23;20103;-73
2023/06/14 05:55:26;;;;;;;5.75;2.50;;;;;;;17.32;92.04;101869.41;6146510;23;20700;-75
2023/06/14 05:58:10;;;;;;;3.47;2.40;;;;;;;17.51;91.16;101861.19;6146491;23;20024;-73
2023/06/14 06:00:54;;;;;;;3.22;2.50;;;;;;;17.76;90.58;101865.06;6136852;23;20136;-75
2023/06/14 06:03:38;;;;;;;2.30;2.10;;;;;;;17.87;88.96;101872.44;6145969;23;20015;-73
2023/06/14 06:06:23;;;;;;;3.92;2.00;;;;;;;17.92;87.69;101866.81;6125372;23;20140;-73
2023/06/14 06:09:07;;;;;;;5.18;2.10;;;;;;;18.09;87.43;101876.53;6146777;23;20088;-75
2023/06/14 06:11:51;;;;;;;3.55;2.10;;;;;;;18.19;86.47;101871.47;6126190;23;20480;-74
2023/06/14 06:14:35;;;;;;;3.47;2.10;;;;;;;18.39;86.02;101880.09;6148707;23;20020;-74
2023/06/14 06:17:19;;;;;;;3.78;2.50;;;;;;;18.63;85.11;101882.19;6151381;23;20031;-73
2023/06/14 06:20:06;;;;;;;3.17;2.10;;;;;;;18.82;84.70;101884.56;6144544;23;20060;-73
2023/06/14 06:22:50;;;;;;;3.15;1.98;;;;;;;18.95;83.75;101881.97;6148528;23;20057;-73
2023/06/14 06:25:34;;;;;;;2.72;2.15;;;;;;;19.13;83.35;101886.13;6129812;23;20017;-74
2023/06/14 06:28:18;;;;;;;4.07;2.10;;;;;;;19.27;82.59;101887.06;6138568;23;20829;-74
2023/06/14 06:31:03;;;;;;;2.75;1.90;;;;;;;19.38;81.78;101887.22;6151521;23;20017;-73
2023/06/14 06:33:47;;;;;;;4.43;2.05;;;;;;;19.50;80.43;101887.38;6147657;23;20238;-73
2023/06/14 06:36:31;;;;;;;3.08;2.20;;;;;;;19.64;80.43;101889.09;6148910;23;20071;-72
2023/06/14 06:39:15;;;;;;;2.55;2.10;;;;;;;19.81;79.21;101891.50;6096786;23;20116;-73
2023/06/14 06:41:59;;;;;;;2.33;1.60;;;;;;;20.01;79.27;101886.63;6151100;23;20088;-73
2023/06/14 06:44:43;;;;;;;5.32;2.28;;;;;;;20.26;78.85;101900.19;6125795;23;20033;-72
2023/06/14 06:47:27;;;;;;;3.20;2.08;;;;;;;20.40;77.18;101897.38;6128224;23;20024;-73
2023/06/14 06:50:11;;;;;;;2.25;1.90;;;;;;;20.59;75.94;101901.44;6118579;23;20032;-73
2023/06/14 06:52:55;;;;;;;2.60;2.08;;;;;;;20.74;75.41;101905.72;6094703;23;20071;-73
2023/06/14 06:55:39;;;;;;;2.45;2.00;;;;;;;20.88;75.03;101911.97;6150290;23;20075;-72
2023/06/14 06:58:23;;;;;;;3.65;1.90;;;;;;;21.05;73.16;101912.53;6148658;23;20020;-72
2023/06/14 07:01:09;;;;;;;2.78;1.70;;;;;;;21.16;72.15;101918.88;6097916;23;20101;-72
2023/06/14 07:03:52;;;;;;;3.00;1.70;;;;;;;21.22;71.68;101924.75;6144015;23;20744;-72
2023/06/14 07:06:37;;;;;;;3.55;2.13;;;;;;;21.35;71.08;101919.34;6135799;23;20117;-72
2023/06/14 07:09:24;;;;;;;5.47;1.70;;;;;;;21.43;70.40;101916.94;6118626;23;20025;-74
2023/06/14 07:12:08;;;;;;;2.67;1.58;;;;;;;21.63;70.09;101917.25;6150441;23;20112;-74
2023/06/14 07:14:52;;;;;;;2.70;1.90;;;;;;;21.82;68.14;101931.06;6147351;23;20076;-73
2023/06/14 07:17:36;;;;;;;1.67;1.58;;;;;;;21.96;67.85;101926.47;6117227;23;20155;-73
2023/06/14 07:20:21;;;;;;;2.00;1.75;;;;;;;22.12;67.12;101928.84;6125461;23;20020;-73
2023/06/14 07:23:05;;;;;;;2.45;1.63;;;;;;;22.27;66.37;101925.91;6147597;23;20056;-74
2023/06/14 07:25:50;;;;;;;2.00;1.60;;;;;;;22.37;65.19;101929.59;6147760;23;20683;-76
2023/06/14 07:28:34;;;;;;;2.40;1.50;;;;;;;22.43;63.39;101929.09;6125878;23;20032;-75
2023/06/14 07:31:19;;;;;;;2.25;1.40;;;;;;;22.41;64.07;101930.19;6144761;23;20021;-74
2023/06/14 07:34:03;;;;;;;2.05;1.52;;;;;;;22.48;63.28;101934.13;6143642;23;20028;-75
2023/06/14 07:36:47;;;;;;;1.63;1.40;;;;;;;22.58;63.61;101918.97;6147864;23;20020;-75
2023/06/14 07:39:31;;;;;;;2.45;1.80;;;;;;;22.78;62.55;101930.84;6134616;23;20133;-74
2023/06/14 07:42:15;;;;;;;2.42;1.65;;;;;;;22.88;61.01;101930.94;6125141;23;20779;-73
2023/06/14 07:44:59;;;;;;;1.83;1.40;;;;;;;22.98;60.92;101928.34;6148493;23;20776;-73
2023/06/14 07:47:44;;;;;;;2.03;1.45;;;;;;;23.08;60.77;101936.56;6147662;23;20532;-74
2023/06/14 07:50:28;;;;;;;1.50;1.40;;;;;;;23.10;59.80;101934.59;6148117;23;20032;-74
2023/06/14 07:53:13;;;;;;;2.25;1.55;;;;;;;23.16;59.89;101931.38;6138045;23;20598;-75
2023/06/14 07:56:00;;;;;;;2.03;1.40;;;;;;;23.20;59.07;101935.56;6127533;23;20088;-74
2023/06/14 07:58:44;;;;;;;2.70;1.80;;;;;;;23.32;58.90;101938.28;6129109;23;20024;-75
2023/06/14 08:01:29;;;;;;;2.35;1.40;;;;;;;23.40;58.25;101933.09;6148853;23;20056;-72
2023/06/14 08:04:14;;;;;;;2.88;1.70;;;;;;;23.53;58.40;101940.16;6142421;23;20164;-72
2023/06/14 08:06:59;;;;;;;1.90;1.60;;;;;;;23.60;57.48;101941.38;6124485;23;20092;-73
2023/06/14 08:09:43;;;;;;;1.50;1.35;;;;;;;23.77;57.68;101945.34;6115700;23;20346;-73
2023/06/14 08:12:29;;;;;;;2.00;1.80;;;;;;;23.86;55.88;101947.25;5787450;23;115765;-73
2023/06/14 08:21:07;;;;;;;1.60;1.25;;;;;;;24.13;54.28;101947.78;4980955;28;89640;-72
2023/06/14 08:27:14;;;;;;;2.25;1.48;;;;;;;24.22;54.44;101949.66;5176288;27;20527;-72
2023/06/14 08:29:41;;;;;;;2.80;1.65;;;;;;;24.35;54.21;101952.16;5124375;27;20125;-72
2023/06/14 08:32:07;;;;;;;1.88;1.42;;;;;;;24.42;54.16;101947.91;5135406;27;20250;-72
2023/06/14 08:34:32;;;;;;;1.90;1.42;;;;;;;24.40;53.54;101940.94;5137187;27;20478;-73
2023/06/14 08:36:58;;;;;;;1.95;1.50;;;;;;;24.42;53.61;101947.91;5140951;27;20404;-72
2023/06/14 08:39:23;;;;;;;2.20;1.63;;;;;;;24.35;52.72;101938.63;5136448;27;20042;-71
2023/06/14 08:41:50;;;;;;;2.22;1.40;;;;;;;24.44;52.86;101944.25;5154589;27;22136;-73
2023/06/14 08:44:16;;;;;;;1.58;1.33;;;;;;;24.54;53.33;101943.28;5134610;27;20058;-75
2023/06/14 08:46:42;;;;;;;2.17;1.67;;;;;;;24.50;52.23;101944.53;5141432;27;20143;-73
2023/06/14 08:49:08;;;;;;;3.25;1.80;;;;;;;24.27;52.81;101936.59;5153557;27;20967;-72
2023/06/14 08:51:36;;;;;;;1.52;1.40;;;;;;;24.28;52.36;101941.00;5126671;27;20247;-76
2023/06/14 08:54:03;;;;;;;2.33;1.40;;;;;;;24.23;52.76;101937.84;5139035;27;20175;-76
2023/06/14 08:56:30;;;;;;;2.58;1.40;;;;;;;24.26;53.71;101940.31;5155871;27;20988;-72
2023/06/14 08:59:03;;;;;;;1.55;1.35;;;;;;;24.28;51.63;101941.00;5139572;27;20040;-73
2023/06/14 09:01:34;;;;;;;2.40;1.40;;;;;;;24.17;51.63;101941.09;5147015;27;20045;-73
2023/06/14 09:03:59;;;;;;;2.85;1.63;;;;;;;24.01;51.29;101942.38;5157404;27;20034;-71
2023/06/14 09:06:25;;;;;;;2.00;1.48;;;;;;;24.03;50.29;101946.81;5156493;27;20050;-77
2023/06/14 09:08:51;;;;;;;1.38;1.15;;;;;;;24.01;50.55;101945.09;5157509;27;20038;-72
2023/06/14 09:11:18;;;;;;;2.10;1.40;;;;;;;24.04;51.26;101943.97;5157039;27;20125;-72
2023/06/14 09:13:46;;;;;;;2.45;1.40;;;;;;;24.07;50.22;101941.03;5157519;27;20042;-71
2023/06/14 09:16:12;;;;;;;2.28;1.30;;;;;;;24.18;49.64;101950.91;5156725;27;20038;-72
2023/06/14 09:18:40;;;;;;;2.55;1.35;;;;;;;24.17;48.89;101951.91;5142433;27;22120;-70
2023/06/14 09:21:07;;;;;;;1.85;1.60;;;;;;;24.28;50.29;101940.16;5124426;27;20488;-71
2023/06/14 09:23:37;;;;;;;2.65;1.30;;;;;;;24.54;48.63;101953.25;5140658;27;20034;-72
2023/06/14 09:26:09;;;;;;;1.65;1.45;;;;;;;24.78;47.63;101957.50;5136099;27;20050;-71
2023/06/14 09:28:36;;;;;;;1.52;1.42;;;;;;;24.85;47.79;101947.84;5155679;27;20061;-73
2023/06/14 09:31:02;;;;;;;3.30;1.52;;;;;;;24.92;47.36;101946.31;5123506;27;20110;-72
2023/06/14 09:33:31;;;;;;;2.00;1.33;;;;;;;25.07;46.55;101945.91;5136246;27;20655;-76
2023/06/14 09:36:00;;;;;;;3.63;1.63;;;;;;;25.12;46.59;101951.78;5136528;27;20055;-75
2023/06/14 09:38:26;;;;;;;2.03;1.30;;;;;;;25.27;46.32;101952.19;5128782;27;21119;-75
2023/06/14 09:40:52;;;;;;;3.80;1.38;;;;;;;25.30;44.20;101957.34;5124796;27;20049;-75
2023/06/14 09:43:21;;;;;;;1.42;1.30;;;;;;;25.13;42.30;101955.31;5143218;27;20111;-76
2023/06/14 09:45:48;;;;;;;1.20;1.10;;;;;;;24.93;44.27;101952.56;5128122;27;20115;-73
2023/06/14 09:48:17;;;;;;;1.20;1.10;;;;;;;24.80;43.67;101950.09;5120029;27;20038;-76
2023/06/14 09:50:50;;;;;;;3.75;1.45;;;;;;;24.88;44.29;101946.72;5129173;27;20274;-76
2023/06/14 09:53:21;;;;;;;3.30;1.50;;;;;;;24.86;41.62;101954.09;5111189;27;20816;-77
2023/06/14 09:55:48;;;;;;;2.17;1.50;;;;;;;24.69;43.08;101949.16;5144506;27;20038;-75
2023/06/14 09:58:17;;;;;;;2.25;1.30;;;;;;;24.64;43.86;101950.56;5144831;27;20185;-76
2023/06/14 10:00:44;;;;;;;3.80;1.50;;;;;;;24.65;43.07;101949.59;5116920;27;20034;-75
2023/06/14 10:03:13;;;;;;;1.63;1.23;;;;;;;24.60;42.18;101952.69;5124157;27;20225;-78
2023/06/14 10:05:40;;;;;;;1.40;1.20;;;;;;;24.44;42.79;101953.19;5132598;27;20100;-77
2023/06/14 10:08:11;;;;;;;1.50;1.27;;;;;;;24.38;42.83;101951.03;5123918;27;20170;-74
2023/06/14 10:10:40;;;;;;;2.20;1.40;;;;;;;24.27;43.18;101954.66;5125159;27;20041;-75
2023/06/14 10:13:07;;;;;;;1.08;1.00;;;;;;;24.30;43.58;101953.53;5139814;27;20051;-77
2023/06/14 10:15:46;;;;;;;4.93;1.40;;;;;;;24.31;42.79;101939.91;5115300;27;20132;-76
2023/06/14 10:18:22;;;;;;;1.95;1.10;;;;;;;24.30;42.28;101949.00;5115718;27;20057;-77
2023/06/14 10:20:53;;;;;;;1.58;1.30;;;;;;;24.34;43.10;101949.59;5122203;27;21972;-78
2023/06/14 10:23:25;;;;;;;1.60;1.30;;;;;;;24.41;43.68;101939.94;5121865;27;20129;-76
2023/06/14 10:25:54;;;;;;;;;;;;;;;24.58;42.91;101948.41;5141442;27;20054;-76
2023/06/14 10:28:23;;;;;;;2.08;1.38;;;;;;;24.71;42.80;101945.50;5137736;27;20044;-75
2023/06/14 10:31:11;;;;;;;2.13;1.30;;;;;;;24.75;41.11;101946.91;5140214;27;20039;-81
2023/06/14 10:33:49;;;;;;;2.83;1.40;;;;;;;24.57;41.72;101938.59;5121116;27;20042;-77
2023/06/14 10:36:31;;;;;;;1.73;1.20;;;;;;;24.24;41.63;101939.56;5141245;27;20122;-74
2023/06/14 10:39:16;;;;;;;2.60;1.65;;;;;;;23.99;41.36;101951.63;5122775;27;20043;-74
2023/06/14 10:41:42;;;;;;;2.13;1.27;;;;;;;23.91;43.41;101944.16;5105428;27;20043;-74
2023/06/14 10:44:30;;;;;;;3.10;1.30;;;;;;;23.94;43.66;101943.91;5117547;27;20069;-73
2023/06/14 10:46:59;;;;;;;3.80;1.92;;;;;;;24.08;43.58;101947.31;5119292;27;20034;-72
2023/06/14 10:49:45;;;;;;;1.60;1.30;;;;;;;24.09;41.29;101946.31;5117667;27;20988;-75
2023/06/14 10:52:21;;;;;;;1.85;1.40;;;;;;;24.11;42.89;101950.59;5118125;27;20086;-72
2023/06/14 10:55:06;;;;;;;2.00;1.40;;;;;;;24.28;42.44;101942.84;5137280;27;20049;-72
2023/06/14 10:57:35;;;;;;;3.10;1.65;;;;;;;24.41;43.44;101939.94;5119775;27;20041;-75
2023/06/14 11:00:11;;;;;;;1.58;1.48;;;;;;;24.58;44.25;101937.59;5125113;27;20034;-73
2023/06/14 11:03:03;;;;;;;2.22;1.60;;;;;;;24.68;43.65;101943.91;5101149;27;20070;-73
2023/06/14 11:05:28;;;;;;;1.73;1.48;;;;;;;24.71;42.92;101937.38;5137292;27;20047;-76
2023/06/14 11:08:31;;;;;;;2.25;1.65;;;;;;;24.53;43.03;101941.53;5136814;27;20084;-75
2023/06/14 11:11:00;;;;;;;2.30;1.58;;;;;;;24.50;42.95;101939.13;5139953;27;20074;-78
2023/06/14 11:13:26;;;;;;;2.47;1.30;;;;;;;24.53;43.26;101932.59;5141949;27;20059;-78
2023/06/14 11:15:56;;;;;;;2.05;1.38;;;;;;;24.60;43.24;101932.88;5115889;27;20030;-76
2023/06/14 11:18:24;;;;;;;1.63;1.50;;;;;;;24.55;43.07;101920.63;5137510;27;21909;-77
2023/06/14 11:20:50;;;;;;;2.58;1.33;;;;;;;24.37;42.88;101933.94;5131671;27;20050;-74
2023/06/14 11:23:16;;;;;;;1.85;1.33;;;;;;;24.26;43.27;101936.72;5138608;27;20104;-74
2023/06/14 11:25:41;;;;;;;1.60;1.40;;;;;;;24.27;43.70;101933.03;5124268;27;20180;-74
2023/06/14 11:28:07;;;;;;;2.20;1.40;;;;;;;24.43;43.96;101932.53;5137158;27;20042;-73
2023/06/14 11:30:32;;;;;;;3.65;1.67;;;;;;;24.40;43.43;101930.97;5136846;27;20083;-74
2023/06/14 11:32:57;;;;;;;1.90;1.40;;;;;;;24.34;43.48;101922.53;5119903;27;20031;-75
2023/06/14 11:35:23;;;;;;;1.90;1.48;;;;;;;24.34;43.20;101923.38;5122688;27;20045;-74
2023/06/14 11:37:53;;;;;;;1.83;1.35;;;;;;;24.20;43.55;101913.78;5136086;27;20077;-75
2023/06/14 11:40:19;;;;;;;1.95;1.55;;;;;;;24.28;44.61;101908.56;5123361;27;20062;-75
2023/06/14 11:42:44;;;;;;;4.32;1.40;;;;;;;24.35;43.00;101910.72;5117283;27;20068;-77
2023/06/14 11:45:11;;;;;;;1.67;1.50;;;;;;;24.13;43.17;101918.00;5107567;27;20038;-75
2023/06/14 11:47:38;;;;;;;2.47;1.45;;;;;;;24.02;43.70;101916.19;5135409;27;20030;-72
2023/06/14 11:50:05;;;;;;;1.63;1.30;;;;;;;24.05;43.58;101923.19;5115783;27;20038;-74
2023/06/14 11:52:31;;;;;;;2.92;1.60;;;;;;;24.10;43.66;101921.84;5136210;27;20049;-73
2023/06/14 11:54:59;;;;;;;1.60;1.30;;;;;;;24.19;43.62;101924.72;5108250;27;20453;-73
2023/06/14 11:57:25;;;;;;;1.73;1.60;;;;;;;24.09;44.07;101914.72;5135500;27;20061;-75
2023/06/14 11:59:51;;;;;;;3.15;1.58;;;;;;;23.93;44.58;101917.00;5119315;27;20042;-77
2023/06/14 12:02:18;;;;;;;2.58;1.55;;;;;;;23.94;44.20;101911.47;5121685;27;20145;-74
2023/06/14 12:04:46;;;;;;;1.80;1.40;;;;;;;24.09;43.93;101912.03;5100326;27;20042;-75
2023/06/14 12:07:17;;;;;;;2.38;1.50;;;;;;;24.17;43.59;101911.34;5137328;27;20664;-73
2023/06/14 12:10:07;;;;;;;8.07;1.70;;;;;;;24.21;43.12;101911.91;5097470;27;20133;-82
2023/06/14 12:12:36;;;;;;;2.97;1.55;;;;;;;24.14;43.91;101911.63;5099678;27;20167;-74
2023/06/14 12:15:07;;;;;;;1.45;1.27;;;;;;;24.30;43.65;101911.13;5096403;27;20437;-75
2023/06/14 12:17:38;;;;;;;1.50;1.25;;;;;;;24.34;43.80;101915.25;5077616;28;20039;-74
2023/06/14 12:20:21;;;;;;;2.88;1.40;;;;;;;24.25;44.35;101924.19;5095334;27;20194;-75
2023/06/14 12:22:57;;;;;;;1.77;1.40;;;;;;;24.24;43.70;101925.19;5084648;28;20088;-74
2023/06/14 12:25:28;;;;;;;2.22;1.92;;;;;;;24.17;43.73;101921.31;5092332;28;20051;-75
2023/06/14 12:27:55;;;;;;;2.70;1.63;;;;;;;24.34;44.26;101911.72;5096926;28;20035;-73
2023/06/14 12:30:20;;;;;;;1.65;1.48;;;;;;;24.36;44.34;101917.84;5097382;28;20036;-73